createdAt,value
2022-08-03T00:00:45.062Z,21.69
2022-08-03T00:03:16.985Z,21.69
2022-08-03T00:06:04.196Z,21.69
2022-08-03T00:08:34.440Z,21.67
2022-08-03T00:11:09.700Z,21.60
2022-08-03T00:13:39.477Z,21.49
2022-08-03T00:16:08.986Z,21.47
2022-08-03T00:18:40.845Z,21.41
2022-08-03T00:21:10.250Z,21.37
2022-08-03T00:23:50.827Z,21.31
2022-08-03T00:26:21.417Z,21.37
2022-08-03T00:28:51.159Z,21.37
2022-08-03T00:31:26.470Z,21.32
2022-08-03T00:34:12.468Z,21.16
2022-08-03T00:36:41.969Z,21.09
2022-08-03T00:39:11.605Z,21.11
2022-08-03T00:41:41.032Z,21.12
2022-08-03T00:44:10.401Z,21.07
2022-08-03T00:46:39.776Z,21.03
2022-08-03T00:49:09.169Z,20.95
2022-08-03T00:51:41.403Z,20.89
2022-08-03T00:54:10.710Z,20.89
2022-08-03T00:56:40.392Z,20.92
2022-08-03T00:59:29.554Z,20.93
2022-08-03T01:01:59.680Z,20.88
2022-08-03T01:04:29.105Z,20.85
2022-08-03T01:07:10.953Z,20.78
2022-08-03T01:09:43.659Z,20.75
2022-08-03T01:12:17.622Z,20.63
2022-08-03T01:14:48.910Z,20.60
2022-08-03T01:17:22.516Z,20.59
2022-08-03T01:19:56.733Z,20.64
2022-08-03T01:22:41.395Z,20.61
2022-08-03T01:25:16.862Z,20.64
2022-08-03T01:27:54.232Z,20.61
2022-08-03T01:30:27.423Z,20.60
2022-08-03T01:33:01.889Z,20.52
2022-08-03T01:35:36.708Z,20.46
2022-08-03T01:38:09.656Z,20.37
2022-08-03T01:40:40.390Z,20.36
2022-08-03T01:43:11.249Z,20.36
2022-08-03T01:45:43.790Z,20.40
2022-08-03T01:48:14.696Z,20.40
2022-08-03T01:50:45.098Z,20.39
2022-08-03T01:53:16.488Z,20.38
2022-08-03T01:55:46.649Z,20.36
2022-08-03T01:58:17.792Z,20.35
2022-08-03T02:00:51.857Z,20.18
2022-08-03T02:03:23.262Z,20.13
2022-08-03T02:06:06.102Z,20.24
2022-08-03T02:08:43.360Z,20.34
2022-08-03T02:11:12.764Z,20.44
2022-08-03T02:13:42.279Z,20.47
2022-08-03T02:16:15.167Z,20.50
2022-08-03T02:18:44.969Z,20.49
2022-08-03T02:21:55.862Z,20.44
2022-08-03T02:24:09.470Z,20.15
2022-08-03T02:26:40.462Z,20.10
2022-08-03T02:29:14.026Z,20.11
2022-08-03T02:31:46.479Z,20.04
2022-08-03T02:34:17.361Z,20.07
2022-08-03T02:36:52.214Z,20.11
2022-08-03T02:39:23.496Z,20.05
2022-08-03T02:41:55.293Z,19.98
2022-08-03T02:44:27.518Z,19.95
2022-08-03T02:47:10.819Z,19.78
2022-08-03T02:49:51.252Z,19.72
2022-08-03T02:52:22.119Z,19.74
2022-08-03T02:54:53.801Z,19.62
2022-08-03T02:57:24.450Z,19.52
2022-08-03T02:59:54.551Z,19.49
2022-08-03T03:02:27.296Z,19.49
2022-08-03T03:05:54.568Z,19.50
2022-08-03T03:07:52.248Z,19.57
2022-08-03T03:10:23.481Z,19.58
2022-08-03T03:12:54.004Z,19.54
2022-08-03T03:15:23.414Z,19.54
2022-08-03T03:17:55.615Z,19.48
2022-08-03T03:20:28.943Z,19.35
2022-08-03T03:23:01.186Z,19.27
2022-08-03T03:25:31.570Z,19.30
2022-08-03T03:28:01.061Z,19.21
2022-08-03T03:30:31.934Z,19.14
2022-08-03T03:33:03.894Z,19.14
2022-08-03T03:35:38.761Z,19.10
2022-08-03T03:38:09.152Z,19.01
2022-08-03T03:40:38.593Z,19.02
2022-08-03T03:43:10.333Z,19.02
2022-08-03T03:45:39.989Z,19.07
2022-08-03T03:48:12.361Z,19.08
2022-08-03T03:50:42.025Z,19.04
2022-08-03T03:53:12.092Z,19.11
2022-08-03T03:55:59.603Z,19.08
2022-08-03T03:58:31.065Z,19.11
2022-08-03T04:03:43.837Z,19.11
2022-08-03T04:06:25.870Z,19.07
2022-08-03T04:09:07.714Z,18.95
2022-08-03T04:11:39.381Z,18.87
2022-08-03T04:14:10.794Z,18.82
2022-08-03T04:16:43.852Z,18.93
2022-08-03T04:19:22.934Z,19.02
2022-08-03T04:21:57.209Z,19.09
2022-08-03T04:24:29.778Z,18.99
2022-08-03T04:26:59.999Z,18.92
2022-08-03T04:29:30.013Z,18.93
2022-08-03T04:32:03.060Z,19.00
2022-08-03T04:34:35.368Z,19.11
2022-08-03T04:37:07.191Z,19.17
2022-08-03T04:39:38.022Z,19.18
2022-08-03T04:42:09.500Z,19.11
2022-08-03T04:44:40.656Z,19.15
2022-08-03T04:47:10.103Z,19.20
2022-08-03T04:49:42.608Z,19.38
2022-08-03T04:52:12.566Z,19.39
2022-08-03T04:54:42.393Z,19.40
2022-08-03T04:57:22.310Z,19.48
2022-08-03T05:00:01.436Z,19.51
2022-08-03T05:02:32.829Z,19.60
2022-08-03T05:05:04.705Z,19.64
2022-08-03T05:07:35.946Z,19.70
2022-08-03T05:10:14.682Z,19.75
2022-08-03T05:12:45.221Z,19.82
2022-08-03T05:15:14.774Z,19.88
2022-08-03T05:17:44.152Z,19.89
2022-08-03T05:20:16.556Z,19.82
2022-08-03T05:22:48.327Z,19.73
2022-08-03T05:25:19.305Z,19.79
2022-08-03T05:27:50.208Z,19.85
2022-08-03T05:30:30.502Z,20.01
2022-08-03T05:33:03.128Z,20.19
2022-08-03T05:35:57.424Z,20.26
2022-08-03T05:38:33.166Z,20.31
2022-08-03T05:41:23.397Z,20.31
2022-08-03T05:43:54.751Z,20.34
2022-08-03T05:46:24.913Z,20.33
2022-08-03T05:48:54.673Z,20.41
2022-08-03T05:51:26.637Z,20.50
2022-08-03T05:53:55.980Z,20.60
2022-08-03T05:56:26.563Z,20.74
2022-08-03T05:58:56.215Z,20.76
2022-08-03T06:01:25.649Z,20.88
2022-08-03T06:03:55.139Z,20.82
2022-08-03T06:06:31.876Z,20.75
2022-08-03T06:09:01.668Z,20.77
2022-08-03T06:11:30.974Z,20.74
2022-08-03T06:14:00.303Z,20.89
2022-08-03T06:16:29.777Z,20.97
2022-08-03T06:18:59.133Z,21.07
2022-08-03T06:21:31.231Z,21.19
2022-08-03T06:24:00.631Z,21.27
2022-08-03T06:26:31.900Z,21.44
2022-08-03T06:29:01.240Z,21.61
2022-08-03T06:31:33.841Z,21.66
2022-08-03T06:34:32.503Z,21.80
2022-08-03T06:37:01.519Z,21.92
2022-08-03T06:39:31.784Z,22.10
2022-08-03T06:42:01.102Z,22.22
2022-08-03T06:44:30.464Z,22.29
2022-08-03T06:46:59.769Z,22.38
2022-08-03T06:49:29.121Z,22.48
2022-08-03T06:52:03.080Z,22.49
2022-08-03T06:54:35.983Z,22.66
2022-08-03T06:57:05.492Z,22.77
2022-08-03T07:00:09.094Z,22.89
2022-08-03T07:02:24.255Z,23.04
2022-08-03T07:04:57.673Z,23.11
2022-08-03T07:07:29.681Z,23.18
2022-08-03T07:09:59.060Z,23.29
2022-08-03T07:12:29.335Z,23.42
2022-08-03T07:15:02.289Z,23.55
2022-08-03T07:17:33.318Z,23.69
2022-08-03T07:20:03.592Z,23.80
2022-08-03T07:22:35.547Z,23.85
2022-08-03T07:25:05.173Z,23.97
2022-08-03T07:27:35.049Z,24.08
2022-08-03T07:30:04.631Z,24.24
2022-08-03T07:32:34.135Z,24.44
2022-08-03T07:35:03.618Z,24.52
2022-08-03T07:37:40.927Z,24.58
2022-08-03T07:40:23.471Z,24.65
2022-08-03T07:42:58.415Z,24.78
2022-08-03T07:45:27.726Z,24.91
2022-08-03T07:47:57.034Z,24.98
2022-08-03T07:50:26.434Z,25.14
2022-08-03T07:52:59.898Z,25.30
2022-08-03T07:55:30.372Z,25.38
2022-08-03T07:58:04.023Z,25.45
2022-08-03T08:00:34.080Z,25.63
2022-08-03T08:03:03.479Z,25.88
2022-08-03T08:05:32.827Z,25.92
2022-08-03T08:08:04.882Z,25.99
2022-08-03T08:10:34.329Z,26.14
2022-08-03T08:13:04.746Z,26.35
2022-08-03T08:15:34.386Z,26.56
2022-08-03T08:18:03.995Z,26.78
2022-08-03T08:20:38.085Z,26.86
2022-08-03T08:23:37.673Z,26.84
2022-08-03T08:26:00.682Z,26.94
2022-08-03T08:28:33.447Z,27.07
2022-08-03T08:31:03.391Z,27.31
2022-08-03T08:34:02.727Z,27.52
2022-08-03T08:36:24.153Z,27.71
2022-08-03T08:38:56.164Z,27.83
2022-08-03T08:41:25.495Z,28.01
2022-08-03T08:44:01.696Z,28.13
2022-08-03T08:46:32.456Z,28.18
2022-08-03T08:49:05.089Z,28.32
2022-08-03T08:51:52.690Z,28.36
2022-08-03T08:54:29.811Z,28.48
2022-08-03T08:56:59.928Z,28.62
2022-08-03T08:59:49.620Z,28.53
2022-08-03T09:02:18.940Z,28.59
2022-08-03T09:04:48.914Z,28.58
2022-08-03T09:07:20.290Z,28.57
2022-08-03T09:10:11.085Z,28.69
2022-08-03T09:12:43.227Z,28.89
2022-08-03T09:15:23.985Z,29.01
2022-08-03T09:17:54.066Z,29.13
2022-08-03T09:20:24.142Z,29.17
2022-08-03T09:23:00.474Z,29.22
2022-08-03T09:25:33.475Z,29.36
2022-08-03T09:28:07.597Z,29.52
2022-08-03T09:30:37.367Z,29.53
2022-08-03T09:33:08.344Z,29.50
2022-08-03T09:35:58.802Z,29.46
2022-08-03T09:38:28.764Z,29.61
2022-08-03T09:41:01.108Z,29.85
2022-08-03T09:43:30.631Z,29.91
2022-08-03T09:46:09.662Z,29.77
2022-08-03T09:48:38.960Z,29.70
2022-08-03T09:51:13.239Z,29.85
2022-08-03T09:54:01.791Z,30.14
2022-08-03T09:56:43.350Z,30.21
2022-08-03T09:59:13.089Z,30.05
2022-08-03T10:01:46.308Z,30.16
2022-08-03T10:04:17.154Z,30.25
2022-08-03T10:06:47.073Z,30.19
2022-08-03T10:09:17.168Z,30.12
2022-08-03T10:11:49.797Z,30.14
2022-08-03T10:14:22.761Z,30.19
2022-08-03T10:16:52.571Z,30.30
2022-08-03T16:16:42.461Z,36.50
2022-08-03T16:19:11.746Z,36.58
2022-08-03T16:21:48.179Z,36.74
2022-08-03T16:24:27.951Z,36.61
2022-08-03T16:26:57.700Z,36.47
2022-08-03T16:29:29.898Z,36.34
2022-08-03T16:32:09.304Z,36.48
2022-08-03T16:34:39.728Z,36.59
2022-08-03T16:37:36.585Z,36.63
2022-08-03T16:39:59.161Z,36.62
2022-08-03T16:42:28.584Z,36.68
2022-08-03T16:44:57.971Z,36.73
2022-08-03T16:47:29.884Z,36.87
2022-08-03T16:50:00.503Z,37.03
2022-08-03T16:52:30.185Z,37.13
2022-08-03T16:54:59.462Z,37.25
2022-08-03T16:57:56.719Z,37.32
2022-08-03T17:00:34.149Z,37.45
2022-08-03T17:03:12.807Z,37.62
2022-08-03T17:05:50.300Z,37.76
2022-08-03T17:08:26.651Z,37.92
2022-08-03T17:10:57.105Z,38.10
2022-08-03T17:13:39.456Z,38.22
2022-08-03T17:16:12.164Z,38.35
2022-08-03T17:18:49.665Z,38.46
2022-08-03T17:21:19.733Z,38.49
2022-08-03T17:23:54.693Z,38.50
2022-08-03T17:26:30.317Z,38.67
2022-08-03T17:29:12.609Z,38.75
2022-08-03T17:31:49.918Z,38.63
2022-08-03T17:34:26.616Z,38.70
2022-08-03T17:37:05.171Z,38.79
2022-08-03T17:39:57.586Z,38.99
2022-08-03T17:42:31.003Z,38.81
2022-08-03T17:45:03.768Z,38.41
2022-08-03T17:47:41.935Z,38.31
2022-08-03T17:50:24.649Z,38.27
2022-08-03T17:52:55.386Z,38.36
2022-08-03T17:55:55.732Z,38.39
2022-08-03T17:58:22.731Z,38.27
2022-08-03T18:04:10.993Z,37.85
2022-08-03T18:06:56.133Z,37.26
2022-08-03T18:10:03.528Z,36.56
2022-08-03T18:12:22.453Z,35.91
2022-08-03T18:14:57.521Z,35.45
2022-08-03T18:17:55.538Z,35.03
2022-08-03T18:20:34.299Z,34.63
2022-08-03T18:23:06.824Z,34.42
2022-08-03T18:25:45.239Z,34.18
2022-08-03T18:28:23.285Z,33.98
2022-08-03T18:34:18.420Z,33.75
2022-08-03T18:36:37.597Z,33.62
2022-08-03T18:39:12.325Z,33.53
2022-08-03T18:41:46.356Z,33.45
2022-08-03T18:44:37.415Z,33.34
2022-08-03T18:47:16.175Z,33.20
2022-08-03T18:49:50.623Z,33.07
2022-08-03T18:52:20.723Z,32.97
2022-08-03T18:55:09.490Z,32.89
2022-08-03T18:57:53.194Z,32.78
2022-08-03T19:00:24.975Z,32.63
2022-08-03T19:03:20.235Z,32.58
2022-08-03T19:06:05.913Z,32.38
2022-08-03T19:08:39.875Z,32.33
2022-08-03T19:12:13.274Z,32.21
2022-08-03T19:14:29.737Z,32.00
2022-08-03T19:17:06.919Z,31.73
2022-08-03T19:19:44.002Z,31.59
2022-08-03T19:22:15.913Z,31.53
2022-08-03T19:24:49.075Z,31.48
2022-08-03T19:27:26.803Z,31.39
2022-08-03T19:30:02.102Z,31.37
2022-08-03T19:32:34.748Z,31.27
2022-08-03T19:35:12.418Z,31.18
2022-08-03T19:37:43.361Z,31.10
2022-08-03T19:40:13.224Z,31.07
2022-08-03T19:42:47.264Z,31.01
2022-08-03T19:45:19.917Z,30.93
2022-08-03T19:47:54.408Z,30.85
2022-08-03T19:50:24.101Z,30.82
2022-08-03T19:52:55.369Z,30.79
2022-08-03T19:55:25.186Z,30.79
2022-08-03T19:57:58.484Z,30.62
2022-08-03T20:00:30.269Z,30.45
2022-08-03T20:03:03.645Z,30.40
2022-08-03T20:05:45.039Z,30.33
2022-08-03T20:08:22.895Z,30.20
2022-08-03T20:10:52.424Z,29.95
2022-08-03T20:13:28.376Z,29.70
2022-08-03T20:15:57.777Z,29.53
2022-08-03T20:18:27.084Z,29.48
2022-08-03T20:20:57.061Z,29.50
2022-08-03T20:23:27.684Z,29.47
2022-08-03T20:26:06.897Z,29.37
2022-08-03T20:28:50.136Z,29.27
2022-08-03T20:31:25.213Z,29.20
2022-08-03T20:34:04.435Z,29.04
2022-08-03T20:36:33.731Z,28.98
2022-08-03T20:39:07.908Z,28.93
2022-08-03T20:41:39.814Z,28.81
2022-08-03T20:44:11.877Z,28.87
2022-08-03T20:46:50.184Z,28.90
2022-08-03T20:49:25.766Z,28.93
2022-08-03T20:51:56.007Z,28.88
2022-08-03T20:54:29.313Z,28.82
2022-08-03T20:57:03.747Z,28.71
2022-08-03T20:59:47.588Z,28.63
2022-08-03T21:02:29.797Z,28.44
2022-08-03T21:05:03.288Z,28.31
2022-08-03T21:07:45.950Z,28.24
2022-08-03T21:10:30.145Z,28.27
2022-08-03T21:13:04.654Z,38.04
2022-08-03T21:13:04.655Z,33.88
2022-08-03T21:16:02.466Z,28.23
2022-08-03T21:18:45.812Z,28.25
2022-08-03T21:21:16.848Z,28.24
2022-08-03T21:23:48.583Z,28.19
2022-08-03T21:26:19.474Z,28.07
2022-08-03T21:28:49.456Z,27.89
2022-08-03T21:31:25.256Z,27.81
2022-08-03T21:33:56.204Z,27.86
2022-08-03T21:36:28.993Z,27.96
2022-08-03T21:38:59.327Z,27.97
2022-08-03T21:41:29.419Z,27.92
2022-08-03T21:43:58.818Z,27.81
2022-08-03T21:46:33.216Z,27.59
2022-08-03T21:50:04.515Z,27.47
2022-08-03T21:51:54.956Z,27.37
2022-08-03T21:54:25.840Z,27.25
2022-08-03T21:56:57.479Z,27.21
2022-08-03T21:59:27.238Z,27.04
2022-08-03T22:01:59.329Z,26.90
2022-08-03T22:04:38.807Z,26.72
2022-08-03T22:07:19.474Z,26.61
2022-08-03T22:09:51.619Z,26.58
2022-08-03T22:12:23.545Z,26.59
2022-08-03T22:15:00.762Z,26.55
2022-08-03T22:17:55.462Z,26.57
2022-08-03T22:20:23.962Z,26.55
2022-08-03T22:22:57.049Z,26.55
2022-08-03T22:25:29.327Z,26.52
2022-08-03T22:27:59.880Z,26.46
2022-08-03T22:30:29.652Z,26.49
2022-08-03T22:33:02.250Z,26.45
2022-08-03T22:35:44.354Z,26.44
2022-08-03T22:38:17.766Z,26.46
2022-08-03T22:40:47.747Z,26.48
2022-08-03T22:43:17.076Z,26.42
2022-08-03T22:46:08.836Z,26.36
2022-08-03T22:48:41.226Z,26.37
2022-08-03T22:51:11.036Z,26.36
2022-08-03T22:53:41.219Z,26.34
2022-08-03T22:56:10.900Z,26.30
2022-08-03T22:58:40.302Z,26.26
2022-08-03T23:01:10.849Z,26.26
2022-08-03T23:04:01.010Z,26.17
2022-08-03T23:06:35.170Z,26.11
2022-08-03T23:09:05.221Z,26.04
2022-08-03T23:11:37.938Z,25.94
2022-08-03T23:14:14.096Z,25.76
2022-08-03T23:16:44.853Z,25.64
2022-08-03T23:19:25.374Z,25.54
2022-08-03T23:22:03.221Z,25.41
2022-08-03T23:24:33.321Z,25.36
2022-08-03T23:27:04.950Z,25.33
2022-08-03T23:29:36.450Z,25.32
2022-08-03T23:32:06.609Z,25.31
2022-08-03T23:34:53.629Z,25.31
2022-08-03T23:37:23.160Z,25.31
2022-08-03T23:39:52.638Z,25.29
2022-08-03T23:42:22.668Z,25.28
2022-08-03T23:44:55.008Z,25.25
2022-08-03T23:47:24.700Z,25.18
2022-08-03T23:50:16.957Z,25.12
2022-08-03T23:52:53.106Z,25.04
2022-08-03T23:55:28.933Z,24.99
2022-08-03T23:58:04.072Z,24.97
